aviador You're here:

GMAD Decoded Metar

AL MASSIRA MC in MOROCCO
Report Time2018-04-26 01:00:00
UTC Time2018-04-26 01:27:44
Flight Rules vfr VFR
WindVRB at 02 kt
Visibility9999 m
Phenomena:N/A
Clouds:Few 010 Hf
Scattered 016 Hf
Expected CloudBase > 1,200 ft AGL from Temp-Dew spread
CeilingNone
Temp17°C (ISA +2)
Dew Point14°C (83% RH)
QNH1015 hPa
Density Alt682 ft
Elevation243 ft
Report Wrong Elevation
Raw Report
GMAD 260100Z VRB02KT 9999 FEW010 SCT016 17/14 Q1015 NOSIG=

Extra information for GMAD:More info

Metar Taf Metar & Taf Last 4 Metars F.Rules Stats Wind Profile Meteogram Temp Stats Airport Information Weather charts Add Link Nearby VenuesMetar ALERT Operation Metar Decoded Social comments